createdAt,value
2018-05-06T00:05:33.011Z,26.1
2018-05-06T00:15:32.239Z,26.1
2018-05-06T00:25:31.536Z,26.1
2018-05-06T00:35:30.976Z,26.1
2018-05-06T00:45:29.923Z,26.1
2018-05-06T00:55:29.277Z,26.1
2018-05-06T01:05:28.799Z,26.1
2018-05-06T01:15:27.591Z,26.1
2018-05-06T01:25:27.176Z,26.1
2018-05-06T01:35:26.020Z,26
2018-05-06T01:45:25.295Z,26
2018-05-06T01:55:24.734Z,25.9
2018-05-06T02:05:24.410Z,25.9
2018-05-06T02:15:23.005Z,25.9
2018-05-06T02:25:22.799Z,25.9
2018-05-06T02:35:21.504Z,25.9
2018-05-06T02:45:20.867Z,25.9
2018-05-06T02:55:20.571Z,25.9
2018-05-06T03:05:19.089Z,25.9
2018-05-06T03:15:18.307Z,25.9
2018-05-06T03:25:17.439Z,25.9
2018-05-06T03:35:16.731Z,25.9
2018-05-06T03:45:15.876Z,25.9
2018-05-06T03:55:15.755Z,25.9
2018-05-06T04:05:14.745Z,25.9
2018-05-06T04:15:13.630Z,25.9
2018-05-06T04:25:13.388Z,25.9
2018-05-06T04:35:12.282Z,25.9
2018-05-06T04:45:11.218Z,25.9
2018-05-06T04:55:10.445Z,26
2018-05-06T05:05:10.221Z,25.9
2018-05-06T05:15:09.553Z,25.8
2018-05-06T05:25:08.191Z,25.7
2018-05-06T05:35:07.356Z,25.6
2018-05-06T05:45:06.566Z,25.6
2018-05-06T05:55:06.125Z,25.5
2018-05-06T06:05:05.057Z,25.4
2018-05-06T06:15:04.518Z,25.4
2018-05-06T06:25:03.438Z,25.4
2018-05-06T06:35:02.933Z,25.4
2018-05-06T06:45:01.866Z,25.3
2018-05-06T06:55:01.436Z,25.3
2018-05-06T07:05:01.009Z,25.3
2018-05-06T07:15:00.063Z,25.2
2018-05-06T07:24:58.792Z,25.1
2018-05-06T07:34:57.992Z,25.1
2018-05-06T07:44:57.807Z,25.1
2018-05-06T07:54:56.498Z,25.1
2018-05-06T08:04:55.677Z,25.1
2018-05-06T08:14:54.869Z,25
2018-05-06T08:24:54.137Z,25
2018-05-06T08:34:53.343Z,24.9
2018-05-06T08:44:52.961Z,25
2018-05-06T08:54:51.831Z,25.1
2018-05-06T09:04:50.982Z,25.1
2018-05-06T09:14:50.551Z,25.3
2018-05-06T09:24:49.464Z,25.5
2018-05-06T09:34:48.703Z,25.6
2018-05-06T09:44:47.957Z,25.7
2018-05-06T09:54:47.186Z,25.8
2018-05-06T10:04:46.370Z,25.9
2018-05-06T10:14:45.526Z,25.9
2018-05-06T10:24:44.895Z,25.6
2018-05-06T10:34:44.339Z,25.5
2018-05-06T10:44:43.333Z,25.5
2018-05-06T10:54:42.560Z,25.6
2018-05-06T11:04:41.643Z,25.8
2018-05-06T11:14:41.268Z,25.8
2018-05-06T11:24:40.229Z,25.8
2018-05-06T11:34:39.363Z,25.7
2018-05-06T11:44:38.602Z,25.8
2018-05-06T11:54:37.766Z,25.8
2018-05-06T12:04:37.044Z,25.7
2018-05-06T12:14:36.302Z,25.7
2018-05-06T12:24:35.782Z,25.8
2018-05-06T12:34:34.745Z,25.9
2018-05-06T12:44:34.240Z,25.9
2018-05-06T12:54:33.245Z,26
2018-05-06T13:04:32.737Z,26
2018-05-06T13:14:31.700Z,26.1
2018-05-06T13:24:31.017Z,26.1
2018-05-06T13:34:30.392Z,26.1
2018-05-06T13:44:29.202Z,25.9
2018-05-06T13:54:28.534Z,25.8
2018-05-06T14:04:27.686Z,25.8
2018-05-06T14:14:27.228Z,25.8
2018-05-06T14:24:26.183Z,25.9
2018-05-06T14:34:25.966Z,25.9
2018-05-06T14:44:24.627Z,25.9
2018-05-06T14:54:24.216Z,25.9
2018-05-06T15:04:23.346Z,25.9
2018-05-06T15:14:22.354Z,25.9
2018-05-06T15:24:21.546Z,25.8
2018-05-06T15:34:20.659Z,25.4
2018-05-06T15:44:20.272Z,25.5
2018-05-06T15:54:19.128Z,25.1
2018-05-06T16:04:18.482Z,25.3
2018-05-06T16:14:18.278Z,25.3
2018-05-06T16:24:16.789Z,25.4
2018-05-06T16:34:16.074Z,25.4
2018-05-06T16:44:15.283Z,25.4
2018-05-06T16:54:14.854Z,25.3
2018-05-06T17:04:13.721Z,25.3
2018-05-06T17:14:12.934Z,25.3
2018-05-06T17:24:12.133Z,25.3
2018-05-06T17:34:11.701Z,25.2
2018-05-06T17:44:10.617Z,25
2018-05-06T17:54:09.917Z,24.1
2018-05-06T18:04:09.033Z,24.1
2018-05-06T18:14:08.248Z,23.9
2018-05-06T18:24:08.794Z,23.6
2018-05-06T18:34:07.969Z,23.2
2018-05-06T18:44:07.109Z,22.5
2018-05-06T18:54:06.422Z,23.1
2018-05-06T19:04:05.675Z,23.3
2018-05-06T19:14:04.841Z,23.4
2018-05-06T19:24:04.046Z,23.7
2018-05-06T19:34:03.245Z,23.9
2018-05-06T19:44:02.553Z,24.1
2018-05-06T19:54:01.675Z,24.1
2018-05-06T20:04:00.915Z,24.3
2018-05-06T20:14:00.123Z,24.4
2018-05-06T20:23:59.698Z,24.7
2018-05-06T20:33:59.531Z,24.8
2018-05-06T20:43:57.856Z,24.9
2018-05-06T20:53:57.402Z,24.9
2018-05-06T21:03:56.426Z,25.1
2018-05-06T21:13:55.501Z,25.1
2018-05-06T21:23:55.091Z,25.2
2018-05-06T21:33:54.362Z,25.2
2018-05-06T21:43:53.191Z,25.3
2018-05-06T21:53:52.480Z,25.3
2018-05-06T22:03:51.635Z,25.3
2018-05-06T22:13:50.817Z,25.4
2018-05-06T22:23:50.420Z,25.4
2018-05-06T22:33:49.608Z,25.4
2018-05-06T22:43:48.765Z,25.4
2018-05-06T22:53:48.063Z,25.5
2018-05-06T23:03:46.954Z,25.5
2018-05-06T23:13:46.519Z,25.5
2018-05-06T23:23:45.716Z,25.6
2018-05-06T23:33:44.700Z,25.6
2018-05-06T23:43:43.860Z,25.6
2018-05-06T23:53:43.059Z,25.6
